Time;durP1;ratioP1;P1;durP2;ratioP2;P2;SDS_P1;SDS_P2;PMS_P1;PMS_P2;Temp;Humidity;BMP_temperature;BMP_pressure;BME280_temperature;BME280_humidity;BME280_pressure;Samples;Min_cycle;Max_cycle;Signal;HPM_P1;HPM_P2
2021/01/31 00:00:33;;;;;;;10.90;8.27;;;6.80;78.80;;;;;;4948703;28;20135;-77
2021/01/31 00:03:00;;;;;;;11.38;8.48;;;6.80;78.70;;;;;;4949022;28;20035;-76
2021/01/31 00:05:26;;;;;;;9.73;8.73;;;6.80;78.70;;;;;;4948234;29;20023;-76
2021/01/31 00:07:53;;;;;;;12.68;8.75;;;6.80;78.70;;;;;;4949066;28;20082;-77
2021/01/31 00:10:31;;;;;;;10.48;7.95;;;6.70;79.00;;;;;;4965557;28;20214;-77
2021/01/31 00:12:58;;;;;;;13.05;8.82;;;6.80;78.70;;;;;;4964695;28;20450;-76
2021/01/31 00:15:28;;;;;;;14.95;8.90;;;6.80;78.70;;;;;;4949242;28;20526;-76
2021/01/31 00:17:54;;;;;;;12.10;8.52;;;6.70;78.50;;;;;;4968000;28;20426;-77
2021/01/31 00:20:22;;;;;;;10.38;8.82;;;6.70;78.50;;;;;;4949202;28;20106;-75
2021/01/31 00:22:48;;;;;;;10.60;8.18;;;6.70;78.50;;;;;;4946553;28;20343;-76
2021/01/31 00:25:15;;;;;;;9.50;7.53;;;6.70;78.50;;;;;;4948492;28;20039;-75
2021/01/31 00:27:41;;;;;;;12.73;8.25;;;6.70;78.50;;;;;;4946811;28;20466;-76
2021/01/31 00:30:15;;;;;;;15.95;9.25;;;6.70;78.50;;;;;;4948145;28;20043;-76
2021/01/31 00:32:41;;;;;;;;;;;6.70;78.80;;;;;;4948675;29;20042;-76
2021/01/31 00:35:08;;;;;;;11.50;7.78;;;6.70;78.50;;;;;;4962959;28;19918;-76
2021/01/31 00:37:34;;;;;;;9.07;7.32;;;6.70;78.50;;;;;;4962680;28;20389;-75
2021/01/31 00:40:00;;;;;;;13.80;8.95;;;6.60;78.30;;;;;;4962355;28;20085;-75
2021/01/31 00:42:26;;;;;;;12.40;8.50;;;6.60;78.30;;;;;;4967734;28;20038;-76
2021/01/31 00:44:53;;;;;;;12.80;7.57;;;6.60;78.30;;;;;;4949600;28;20042;-75
2021/01/31 00:47:21;;;;;;;11.05;7.38;;;6.60;78.30;;;;;;4948121;29;20055;-76
2021/01/31 00:49:49;;;;;;;11.70;7.20;;;6.60;78.30;;;;;;4948483;28;20094;-77
2021/01/31 00:52:16;;;;;;;8.57;6.68;;;6.60;78.30;;;;;;4947914;28;20035;-73
2021/01/31 00:54:43;;;;;;;10.98;5.90;;;6.50;78.20;;;;;;4946340;28;20035;-75
2021/01/31 00:57:09;;;;;;;12.98;5.97;;;6.50;78.20;;;;;;4947934;29;20475;-76
2021/01/31 00:59:36;;;;;;;11.15;5.75;;;6.60;78.40;;;;;;4946031;28;20030;-75
2021/01/31 01:02:07;;;;;;;13.73;6.63;;;6.60;78.30;;;;;;4945808;28;20106;-75
2021/01/31 01:04:35;;;;;;;14.60;6.63;;;6.60;78.30;;;;;;4946744;28;20481;-75
2021/01/31 01:07:07;;;;;;;9.98;5.57;;;6.60;78.20;;;;;;4962791;28;20120;-75
2021/01/31 01:09:32;;;;;;;11.63;5.78;;;6.60;78.10;;;;;;4946200;28;20082;-74
2021/01/31 01:11:58;;;;;;;15.65;6.32;;;6.60;78.00;;;;;;4945980;28;20031;-75
2021/01/31 01:14:25;;;;;;;12.73;6.10;;;6.60;78.00;;;;;;4946028;28;20043;-75
2021/01/31 01:16:51;;;;;;;9.27;5.53;;;6.60;77.90;;;;;;4976630;28;20270;-75
2021/01/31 01:19:17;;;;;;;8.88;5.45;;;6.60;77.90;;;;;;4956678;28;20283;-75
2021/01/31 01:21:43;;;;;;;12.60;5.28;;;6.60;77.90;;;;;;4947801;29;20110;-76
2021/01/31 01:24:09;;;;;;;7.78;5.32;;;6.50;77.70;;;;;;4945585;28;20451;-76
2021/01/31 01:26:35;;;;;;;12.15;5.38;;;6.50;77.70;;;;;;4946062;28;20054;-77
2021/01/31 01:29:01;;;;;;;8.00;4.25;;;6.50;77.70;;;;;;4946056;28;20027;-75
2021/01/31 01:31:27;;;;;;;7.00;5.00;;;6.40;77.60;;;;;;4946927;28;20031;-76
2021/01/31 01:33:53;;;;;;;7.43;4.85;;;6.40;77.60;;;;;;4946962;28;20035;-76
2021/01/31 01:36:19;;;;;;;10.82;4.53;;;6.40;77.60;;;;;;4945562;29;20122;-75
2021/01/31 01:38:46;;;;;;;8.77;4.75;;;6.40;77.70;;;;;;4946229;28;20411;-75
2021/01/31 01:41:12;;;;;;;12.18;4.78;;;6.30;77.50;;;;;;4947141;28;20352;-75
2021/01/31 01:43:38;;;;;;;7.80;4.70;;;6.30;77.60;;;;;;4945705;28;20035;-76
2021/01/31 01:46:19;;;;;;;9.20;4.93;;;6.30;77.60;;;;;;4946854;29;20037;-75
2021/01/31 01:48:53;;;;;;;8.93;5.05;;;6.20;77.40;;;;;;4947653;28;20550;-75
2021/01/31 01:51:35;;;;;;;;;;;6.20;77.40;;;;;;4947862;28;20345;-75
2021/01/31 01:54:02;;;;;;;9.95;3.97;;;6.20;77.50;;;;;;4946753;28;19910;-75
2021/01/31 01:56:48;;;;;;;7.03;4.75;;;6.20;77.40;;;;;;4946607;28;20031;-76
2021/01/31 01:59:14;;;;;;;7.03;4.10;;;6.10;77.20;;;;;;4947117;28;20093;-76
2021/01/31 02:01:55;;;;;;;11.25;4.07;;;6.10;77.30;;;;;;4945889;28;20031;-75
2021/01/31 02:04:20;;;;;;;7.40;3.88;;;6.10;77.30;;;;;;4945809;28;20373;-75
2021/01/31 02:06:48;;;;;;;6.05;3.10;;;6.00;77.10;;;;;;4947437;29;20045;-76
2021/01/31 02:09:14;;;;;;;11.63;4.60;;;6.00;77.10;;;;;;4947629;28;20024;-75
2021/01/31 02:11:40;;;;;;;6.63;4.15;;;6.00;77.10;;;;;;4945320;28;20341;-75
2021/01/31 02:14:11;;;;;;;6.57;4.32;;;5.90;76.90;;;;;;4946822;28;20027;-74
2021/01/31 02:16:57;;;;;;;4.32;3.70;;;5.90;76.90;;;;;;4959273;28;20497;-75
2021/01/31 02:19:48;;;;;;;7.22;3.90;;;5.90;76.90;;;;;;4957278;28;20084;-74
2021/01/31 02:22:57;;;;;;;7.60;3.83;;;5.90;77.10;;;;;;4946615;29;20042;-75
2021/01/31 02:25:40;;;;;;;9.52;3.88;;;5.80;76.80;;;;;;4946924;28;20812;-75
2021/01/31 02:28:21;;;;;;;7.90;3.72;;;5.80;76.80;;;;;;4945311;28;20058;-75
2021/01/31 02:31:23;;;;;;;8.10;3.97;;;5.80;76.90;;;;;;4942915;29;20082;-75
2021/01/31 02:34:15;;;;;;;10.63;3.53;;;5.70;76.70;;;;;;4944781;28;20138;-75
2021/01/31 02:37:03;;;;;;;7.25;3.22;;;5.70;76.70;;;;;;4929070;29;20028;-75
2021/01/31 02:39:47;;;;;;;7.50;3.50;;;5.60;76.60;;;;;;4938707;28;20145;-76
2021/01/31 02:42:32;;;;;;;5.20;3.20;;;5.60;76.60;;;;;;4948310;28;20035;-77
2021/01/31 02:45:32;;;;;;;8.13;3.10;;;5.60;76.60;;;;;;4947592;29;20114;-74
2021/01/31 02:48:15;;;;;;;9.68;3.50;;;5.50;76.40;;;;;;4975835;28;20053;-77
2021/01/31 02:50:53;;;;;;;7.97;3.43;;;5.50;76.50;;;;;;4940394;29;20118;-75
2021/01/31 02:53:27;;;;;;;4.35;3.08;;;5.40;76.30;;;;;;4932318;29;20055;-75
2021/01/31 02:56:15;;;;;;;4.72;2.88;;;5.40;76.30;;;;;;4930804;29;20061;-76
2021/01/31 02:58:46;;;;;;;4.13;2.67;;;5.40;76.30;;;;;;4946638;29;20472;-75
2021/01/31 03:01:33;;;;;;;8.23;3.30;;;5.40;76.40;;;;;;4932135;29;20035;-75
2021/01/31 03:04:05;;;;;;;6.43;3.58;;;5.30;76.20;;;;;;4931816;29;20035;-76
2021/01/31 03:06:37;;;;;;;6.45;3.00;;;5.30;76.20;;;;;;4946887;29;20463;-75
2021/01/31 03:09:54;;;;;;;6.00;2.63;;;5.30;76.20;;;;;;4946517;29;20111;-76
2021/01/31 03:12:43;;;;;;;3.28;2.30;;;5.30;76.20;;;;;;4938441;28;20032;-76
2021/01/31 03:15:15;;;;;;;4.03;2.72;;;5.20;76.10;;;;;;4931734;28;20110;-75
2021/01/31 03:18:01;;;;;;;10.13;2.88;;;5.20;76.20;;;;;;4969172;28;20125;-75
2021/01/31 03:20:30;;;;;;;3.88;3.22;;;5.20;76.20;;;;;;4985019;28;20038;-75
2021/01/31 03:22:59;;;;;;;8.82;3.45;;;5.10;76.10;;;;;;4969803;28;20111;-77
2021/01/31 03:25:34;;;;;;;6.82;3.20;;;5.10;76.20;;;;;;4973358;28;20323;-76
2021/01/31 03:28:00;;;;;;;3.35;2.60;;;5.10;76.30;;;;;;4988366;28;20042;-76
2021/01/31 03:30:26;;;;;;;6.38;3.38;;;5.10;76.30;;;;;;4972073;28;20177;-74
2021/01/31 03:33:04;;;;;;;9.82;3.13;;;5.00;76.20;;;;;;4971337;28;20117;-75
2021/01/31 03:35:43;;;;;;;9.10;3.85;;;5.00;76.20;;;;;;4973178;28;20023;-76
2021/01/31 03:38:13;;;;;;;6.38;3.85;;;5.00;76.20;;;;;;4973073;28;20023;-76
2021/01/31 03:40:42;;;;;;;10.52;2.95;;;5.00;76.30;;;;;;4957943;28;20040;-75
2021/01/31 03:43:08;;;;;;;5.80;3.00;;;4.90;76.10;;;;;;4942663;29;20036;-76
2021/01/31 03:45:42;;;;;;;6.55;2.85;;;4.90;76.10;;;;;;4933209;29;20143;-76
2021/01/31 03:48:18;;;;;;;4.38;2.58;;;4.90;76.10;;;;;;4934652;29;20055;-75
2021/01/31 03:50:44;;;;;;;4.88;2.70;;;4.90;76.20;;;;;;4949409;29;20024;-75
2021/01/31 03:53:11;;;;;;;4.47;2.30;;;4.90;76.20;;;;;;4934325;29;20122;-75
2021/01/31 03:55:41;;;;;;;4.85;2.30;;;4.80;76.00;;;;;;4934760;29;20031;-75
2021/01/31 03:58:10;;;;;;;8.10;3.42;;;4.80;76.10;;;;;;4934755;29;20522;-76
2021/01/31 04:00:45;;;;;;;4.07;2.42;;;4.80;76.10;;;;;;4933529;29;20445;-75
2021/01/31 04:03:33;;;;;;;13.95;3.28;;;4.80;76.10;;;;;;4934463;29;20090;-76
2021/01/31 04:06:08;;;;;;;11.25;3.28;;;4.80;76.00;;;;;;4934411;29;20071;-75
2021/01/31 04:08:35;;;;;;;4.63;3.10;;;4.70;75.90;;;;;;4949095;29;20055;-76
2021/01/31 04:11:02;;;;;;;6.93;3.40;;;4.70;75.90;;;;;;4932829;29;20031;-75
2021/01/31 04:13:30;;;;;;;5.13;3.00;;;4.70;75.90;;;;;;4932658;29;20447;-75
2021/01/31 04:15:59;;;;;;;4.32;2.70;;;4.70;75.90;;;;;;4946060;28;20122;-75
2021/01/31 04:18:25;;;;;;;5.30;3.28;;;4.60;75.80;;;;;;4972326;28;20050;-75
2021/01/31 04:20:52;;;;;;;6.88;3.08;;;4.60;75.80;;;;;;4972603;28;20046;-75
2021/01/31 04:23:18;;;;;;;5.47;2.70;;;4.50;75.60;;;;;;4971007;28;20037;-76
2021/01/31 04:25:45;;;;;;;4.78;2.88;;;4.60;75.80;;;;;;4971200;28;20053;-75
2021/01/31 04:28:16;;;;;;;6.10;3.63;;;4.50;75.70;;;;;;4972775;28;20457;-76
2021/01/31 04:30:45;;;;;;;4.80;3.00;;;4.50;75.60;;;;;;4986938;28;20022;-75
2021/01/31 04:33:12;;;;;;;2.65;2.22;;;4.40;75.50;;;;;;4971057;28;20069;-75
2021/01/31 04:35:38;;;;;;;8.90;3.42;;;4.40;75.50;;;;;;4971540;28;20030;-74
2021/01/31 04:38:05;;;;;;;4.55;2.95;;;4.40;75.50;;;;;;4986683;28;20431;-75
2021/01/31 04:40:32;;;;;;;5.90;3.25;;;4.40;75.50;;;;;;4970621;28;20036;-74
2021/01/31 04:43:00;;;;;;;8.60;3.25;;;4.30;75.30;;;;;;4970862;28;20074;-76
2021/01/31 04:45:26;;;;;;;4.13;2.97;;;4.30;75.30;;;;;;4970007;28;20033;-74
2021/01/31 04:48:11;;;;;;;6.68;2.85;;;4.30;75.30;;;;;;4986404;28;20461;-75
2021/01/31 04:50:46;;;;;;;2.53;2.25;;;4.30;75.30;;;;;;4970304;28;20481;-75
2021/01/31 04:53:26;;;;;;;4.10;2.63;;;4.30;75.30;;;;;;4985675;28;20030;-74
2021/01/31 04:56:15;;;;;;;5.88;2.78;;;4.20;75.10;;;;;;4942033;29;20058;-74
2021/01/31 04:58:47;;;;;;;7.18;2.72;;;4.20;75.10;;;;;;4967192;28;20031;-76
2021/01/31 05:01:16;;;;;;;13.35;3.08;;;4.20;75.10;;;;;;4967279;28;20058;-74
2021/01/31 05:03:55;;;;;;;4.05;2.50;;;4.10;75.00;;;;;;4967153;28;20078;-75
2021/01/31 05:06:22;;;;;;;4.03;2.28;;;4.10;75.00;;;;;;4952408;29;20039;-75
2021/01/31 05:08:49;;;;;;;6.55;3.00;;;4.10;75.00;;;;;;4952959;29;20374;-74
2021/01/31 05:11:28;;;;;;;5.82;2.78;;;4.00;74.90;;;;;;4951135;29;20034;-75
2021/01/31 05:13:59;;;;;;;4.97;2.60;;;4.00;74.90;;;;;;4967321;28;20070;-75
2021/01/31 05:16:26;;;;;;;6.85;2.90;;;4.00;74.90;;;;;;4962843;28;20030;-75
2021/01/31 05:18:56;;;;;;;5.72;2.95;;;4.00;75.00;;;;;;4970201;28;20682;-74
2021/01/31 05:21:27;;;;;;;9.65;3.35;;;3.90;74.90;;;;;;4970734;28;20536;-75
2021/01/31 05:24:00;;;;;;;7.32;2.90;;;3.90;74.90;;;;;;4972292;28;20030;-76
2021/01/31 05:26:28;;;;;;;3.45;2.13;;;3.90;75.00;;;;;;4987382;28;20034;-75
2021/01/31 05:29:03;;;;;;;7.28;3.08;;;3.90;75.00;;;;;;4973162;28;20023;-75
2021/01/31 05:31:34;;;;;;;5.70;2.13;;;3.90;75.10;;;;;;4973294;28;20367;-75
2021/01/31 05:34:00;;;;;;;5.38;3.00;;;3.90;75.10;;;;;;4990033;28;20164;-76
2021/01/31 05:36:29;;;;;;;7.95;3.53;;;3.80;74.90;;;;;;4973276;28;20065;-75
2021/01/31 05:38:56;;;;;;;7.18;3.42;;;3.80;74.90;;;;;;4974817;28;20039;-75
2021/01/31 05:41:33;;;;;;;6.50;3.45;;;3.80;75.00;;;;;;4973810;28;20422;-75
2021/01/31 05:44:01;;;;;;;8.27;2.92;;;3.80;75.00;;;;;;4989289;28;20034;-76
2021/01/31 05:46:57;;;;;;;9.20;3.25;;;3.80;74.90;;;;;;4972905;28;20366;-75
2021/01/31 05:49:45;;;;;;;4.78;2.88;;;3.70;74.70;;;;;;4949516;28;20066;-75
2021/01/31 05:52:23;;;;;;;7.22;3.08;;;3.70;74.70;;;;;;4948612;29;20113;-75
2021/01/31 05:54:51;;;;;;;2.75;2.42;;;3.70;74.60;;;;;;4963220;28;20046;-75
2021/01/31 05:57:28;;;;;;;6.05;2.92;;;3.70;74.60;;;;;;4935028;29;20036;-75
2021/01/31 05:59:55;;;;;;;7.80;2.63;;;3.60;74.50;;;;;;4952468;28;20035;-75
2021/01/31 06:02:30;;;;;;;5.35;2.78;;;3.60;74.50;;;;;;4950396;28;20035;-75
2021/01/31 06:05:17;;;;;;;3.80;2.38;;;3.60;74.60;;;;;;4951077;29;20146;-76
2021/01/31 06:07:45;;;;;;;5.13;2.13;;;3.60;74.60;;;;;;4949137;28;20043;-75
2021/01/31 06:10:17;;;;;;;5.68;2.78;;;3.60;75.10;;;;;;4951690;28;20082;-75
2021/01/31 06:12:46;;;;;;;3.90;2.20;;;3.50;74.50;;;;;;4951570;28;20557;-76
2021/01/31 06:15:21;;;;;;;3.70;2.83;;;3.60;74.70;;;;;;4949133;28;20073;-75
2021/01/31 06:18:04;;;;;;;4.93;2.85;;;3.50;74.60;;;;;;4961695;28;20149;-75
2021/01/31 06:20:34;;;;;;;4.05;2.08;;;3.50;74.70;;;;;;4955554;28;20406;-76
2021/01/31 06:23:00;;;;;;;7.63;3.22;;;3.50;74.70;;;;;;4933362;29;20023;-75
2021/01/31 06:25:26;;;;;;;5.38;2.38;;;3.40;74.50;;;;;;4967191;28;20039;-75
2021/01/31 06:27:56;;;;;;;3.53;2.70;;;3.40;74.60;;;;;;4953086;28;20062;-74
2021/01/31 06:30:33;;;;;;;4.50;2.85;;;3.40;74.60;;;;;;4948452;29;20485;-75
2021/01/31 06:32:59;;;;;;;4.32;2.85;;;3.40;74.60;;;;;;4950265;28;20122;-75
2021/01/31 06:35:26;;;;;;;7.50;3.30;;;3.40;74.60;;;;;;4951567;29;20027;-75
2021/01/31 06:38:17;;;;;;;4.85;2.60;;;3.40;74.60;;;;;;4949911;28;20126;-75
2021/01/31 06:41:06;;;;;;;6.55;3.35;;;3.40;74.60;;;;;;4945966;28;20036;-75
2021/01/31 06:43:58;;;;;;;7.47;2.67;;;3.30;74.40;;;;;;4936586;28;20039;-75
2021/01/31 06:46:28;;;;;;;4.90;2.63;;;3.30;74.40;;;;;;4939292;28;20042;-74
2021/01/31 06:49:06;;;;;;;5.63;2.47;;;3.30;74.40;;;;;;4941792;28;20494;-76
2021/01/31 06:51:35;;;;;;;6.22;2.80;;;3.40;74.50;;;;;;4942126;29;20027;-74
2021/01/31 06:54:10;;;;;;;11.80;4.22;;;3.30;74.40;;;;;;4935772;28;20027;-75
2021/01/31 06:56:55;;;;;;;4.05;2.45;;;3.30;74.40;;;;;;4955390;28;20027;-73
2021/01/31 06:59:53;;;;;;;4.40;2.55;;;3.30;74.50;;;;;;4940712;28;20027;-76
2021/01/31 07:02:43;;;;;;;3.72;2.65;;;3.40;74.70;;;;;;4939064;28;20557;-73
2021/01/31 07:05:18;;;;;;;8.63;3.00;;;3.40;74.60;;;;;;4945865;28;20083;-77
2021/01/31 07:07:59;;;;;;;6.45;3.25;;;3.40;74.50;;;;;;4936466;28;20044;-77
2021/01/31 07:10:53;;;;;;;5.15;3.22;;;3.40;74.40;;;;;;4937743;29;20356;-76
2021/01/31 07:13:34;;;;;;;7.20;4.00;;;3.40;74.40;;;;;;4939835;28;20039;-75
2021/01/31 07:16:18;;;;;;;7.18;3.13;;;3.40;74.40;;;;;;4976297;28;20485;-74
2021/01/31 07:18:55;;;;;;;6.15;3.00;;;3.40;74.50;;;;;;4935485;28;20087;-74
2021/01/31 07:21:31;;;;;;;6.95;3.00;;;3.40;74.50;;;;;;4946120;28;20035;-76
2021/01/31 07:24:03;;;;;;;6.43;3.28;;;3.30;74.40;;;;;;4949748;28;20498;-75
2021/01/31 07:26:51;;;;;;;5.97;3.03;;;3.30;74.50;;;;;;4946774;28;20524;-75
2021/01/31 07:29:39;;;;;;;5.43;2.67;;;3.30;74.60;;;;;;4948063;28;20038;-76
2021/01/31 07:32:11;;;;;;;3.65;2.35;;;3.30;74.60;;;;;;4948193;28;20765;-75
2021/01/31 07:34:51;;;;;;;3.88;2.50;;;3.30;74.60;;;;;;4948237;28;20290;-76
2021/01/31 07:37:19;;;;;;;4.18;2.58;;;3.30;75.10;;;;;;4963524;28;20512;-75
2021/01/31 07:39:57;;;;;;;4.75;2.45;;;3.30;74.70;;;;;;4947209;28;20097;-74
2021/01/31 07:42:26;;;;;;;4.53;3.10;;;3.30;74.70;;;;;;4948699;28;20468;-76
2021/01/31 07:45:01;;;;;;;7.72;3.60;;;3.30;74.70;;;;;;4945439;28;20035;-74
2021/01/31 07:47:27;;;;;;;9.20;3.05;;;3.30;74.70;;;;;;4947179;29;20139;-74
2021/01/31 07:49:59;;;;;;;7.47;3.28;;;3.30;74.70;;;;;;4944070;29;20024;-72
2021/01/31 07:52:42;;;;;;;3.60;3.00;;;3.30;74.80;;;;;;4948460;28;20047;-74
2021/01/31 07:55:19;;;;;;;4.60;2.83;;;3.20;74.60;;;;;;4946776;29;20027;-75
2021/01/31 07:58:08;;;;;;;7.15;3.22;;;3.30;74.70;;;;;;4948674;28;20101;-72
2021/01/31 08:00:44;;;;;;;6.63;3.08;;;3.20;74.50;;;;;;4945382;28;20027;-73
2021/01/31 08:03:35;;;;;;;7.22;2.90;;;3.30;74.70;;;;;;4947192;28;20028;-76
2021/01/31 08:06:09;;;;;;;4.35;2.97;;;3.30;74.80;;;;;;4946729;29;20515;-76
2021/01/31 08:08:48;;;;;;;5.18;2.88;;;3.30;74.80;;;;;;4947934;28;20043;-73
2021/01/31 08:11:17;;;;;;;5.75;3.67;;;3.30;74.80;;;;;;4946758;28;20046;-74
2021/01/31 08:13:51;;;;;;;4.72;2.47;;;3.30;74.80;;;;;;4946788;28;20467;-76
2021/01/31 08:16:48;;;;;;;6.15;3.35;;;3.30;74.90;;;;;;4948038;28;20037;-73
2021/01/31 08:19:14;;;;;;;3.65;2.75;;;3.30;74.90;;;;;;4961156;28;20039;-73
2021/01/31 08:21:49;;;;;;;4.93;2.88;;;3.30;74.90;;;;;;4948596;28;20039;-75
2021/01/31 08:24:54;;;;;;;3.42;2.95;;;3.30;74.90;;;;;;4962614;28;20093;-76
2021/01/31 08:27:42;;;;;;;4.75;3.05;;;3.30;74.90;;;;;;4929273;28;20047;-74
2021/01/31 08:30:14;;;;;;;8.25;3.38;;;3.40;75.10;;;;;;4928200;29;20032;-76
2021/01/31 08:32:58;;;;;;;6.00;3.00;;;3.40;75.00;;;;;;4966893;28;20351;-80
2021/01/31 08:35:39;;;;;;;;;;;3.40;75.00;;;;;;4965091;28;20447;-75
2021/01/31 08:38:31;;;;;;;7.55;2.92;;;3.40;75.00;;;;;;4935504;29;19994;-80
2021/01/31 08:41:05;;;;;;;5.32;3.30;;;3.50;75.00;;;;;;4948403;28;20115;-77
2021/01/31 08:43:36;;;;;;;5.53;3.40;;;3.50;75.00;;;;;;4966325;28;20041;-74
2021/01/31 08:46:18;;;;;;;8.75;3.75;;;3.50;75.00;;;;;;4954604;28;20099;-74
2021/01/31 08:49:12;;;;;;;3.78;2.70;;;3.60;75.10;;;;;;4954962;28;20105;-75
2021/01/31 08:51:44;;;;;;;3.85;2.90;;;3.50;74.90;;;;;;4932853;28;20043;-74
2021/01/31 08:54:11;;;;;;;3.55;2.60;;;3.60;75.10;;;;;;4946537;28;20062;-75
2021/01/31 08:56:58;;;;;;;4.55;2.75;;;3.70;75.20;;;;;;4947724;28;20066;-74
2021/01/31 08:59:31;;;;;;;5.30;3.33;;;3.70;75.10;;;;;;4945733;28;20023;-73
2021/01/31 09:02:18;;;;;;;3.92;2.65;;;3.70;75.10;;;;;;4953906;28;20039;-75
2021/01/31 09:04:50;;;;;;;5.35;2.78;;;3.70;75.00;;;;;;4976158;28;20444;-75
2021/01/31 09:07:28;;;;;;;3.85;2.67;;;3.80;75.10;;;;;;4936907;28;20070;-75
2021/01/31 09:09:58;;;;;;;3.58;2.97;;;3.80;75.10;;;;;;4947954;28;20035;-73
2021/01/31 09:12:25;;;;;;;5.47;3.25;;;3.90;75.20;;;;;;4940526;28;20027;-78
2021/01/31 09:15:03;;;;;;;8.73;3.17;;;3.90;75.20;;;;;;4947685;29;20027;-75
2021/01/31 09:17:29;;;;;;;4.03;2.83;;;4.00;75.50;;;;;;4928245;29;20040;-75
2021/01/31 09:20:18;;;;;;;6.93;3.20;;;4.10;75.70;;;;;;4947930;28;20391;-76
2021/01/31 09:22:50;;;;;;;7.03;3.17;;;4.20;75.70;;;;;;4937953;28;20063;-76
2021/01/31 09:25:19;;;;;;;5.32;3.33;;;4.20;75.50;;;;;;4932569;28;20364;-74
2021/01/31 09:27:58;;;;;;;9.18;3.60;;;4.20;75.50;;;;;;4939289;28;20044;-77
2021/01/31 09:30:25;;;;;;;7.60;3.88;;;4.20;75.40;;;;;;4975471;28;20039;-76
2021/01/31 09:32:57;;;;;;;9.65;3.10;;;4.30;75.50;;;;;;4952737;28;20039;-76
2021/01/31 09:35:30;;;;;;;4.93;2.88;;;4.30;75.50;;;;;;4965605;28;20043;-77
2021/01/31 09:38:20;;;;;;;9.75;3.38;;;4.30;75.50;;;;;;4962842;28;20261;-76
2021/01/31 09:40:48;;;;;;;6.55;3.83;;;4.30;75.50;;;;;;4945131;29;20035;-77
2021/01/31 09:43:19;;;;;;;4.50;3.25;;;4.40;75.60;;;;;;4946067;28;20102;-78
2021/01/31 09:45:49;;;;;;;8.30;3.55;;;4.40;75.60;;;;;;4944651;29;20114;-77
2021/01/31 09:48:20;;;;;;;3.35;2.83;;;4.40;75.60;;;;;;4945426;28;20078;-77
2021/01/31 09:51:01;;;;;;;7.80;3.22;;;4.40;75.60;;;;;;4932575;29;20522;-81
2021/01/31 09:53:32;;;;;;;5.50;3.50;;;4.40;75.60;;;;;;4956403;28;20037;-77
2021/01/31 09:56:01;;;;;;;5.40;3.22;;;4.50;75.70;;;;;;4949616;28;20035;-76
2021/01/31 09:58:53;;;;;;;3.53;2.85;;;4.50;75.70;;;;;;4944285;28;20241;-76
2021/01/31 10:01:29;;;;;;;10.80;3.15;;;4.60;75.80;;;;;;4929568;28;20062;-77
2021/01/31 10:04:04;;;;;;;7.22;3.53;;;4.60;75.70;;;;;;4959961;28;20042;-76
2021/01/31 10:06:42;;;;;;;7.88;3.25;;;4.60;75.70;;;;;;4965962;28;20414;-75
2021/01/31 10:09:09;;;;;;;4.82;3.03;;;4.70;75.80;;;;;;4951581;28;20075;-77
2021/01/31 10:11:39;;;;;;;13.18;4.18;;;4.70;75.80;;;;;;4944921;29;20110;-76
2021/01/31 10:14:33;;;;;;;5.75;3.50;;;4.70;75.70;;;;;;4945294;28;20039;-76
2021/01/31 10:17:16;;;;;;;7.25;3.10;;;4.80;75.90;;;;;;4943457;28;20059;-76
2021/01/31 10:19:42;;;;;;;5.82;3.25;;;4.80;75.80;;;;;;4960464;28;20035;-75
2021/01/31 10:22:21;;;;;;;6.55;3.15;;;4.80;75.80;;;;;;4960303;28;20464;-73
2021/01/31 10:24:49;;;;;;;12.48;5.13;;;4.80;75.70;;;;;;4941727;29;20031;-74
2021/01/31 10:27:24;;;;;;;12.43;5.47;;;4.90;75.80;;;;;;4959147;28;20047;-77
2021/01/31 10:29:52;;;;;;;25.13;12.45;;;5.00;76.00;;;;;;4960652;28;20039;-75
2021/01/31 10:32:26;;;;;;;29.38;13.43;;;4.90;75.80;;;;;;4948602;28;20058;-74
2021/01/31 10:34:55;;;;;;;22.90;10.82;;;5.00;76.10;;;;;;4934800;29;20146;-76
2021/01/31 10:37:35;;;;;;;25.02;12.13;;;5.10;76.30;;;;;;4931447;29;20057;-75
2021/01/31 10:40:06;;;;;;;30.25;13.48;;;5.20;76.50;;;;;;4942376;29;20099;-75
2021/01/31 10:42:31;;;;;;;42.58;14.85;;;5.30;76.70;;;;;;4935437;28;20051;-75
2021/01/31 10:45:15;;;;;;;36.65;13.85;;;5.40;77.10;;;;;;4953023;28;20036;-77
2021/01/31 10:47:45;;;;;;;30.08;13.65;;;5.50;77.30;;;;;;4949299;28;20437;-78
2021/01/31 10:50:14;;;;;;;29.65;11.30;;;5.70;77.50;;;;;;4948820;28;20310;-77
2021/01/31 10:52:42;;;;;;;23.80;11.43;;;5.80;77.50;;;;;;4948096;28;20031;-76
2021/01/31 10:55:10;;;;;;;23.83;11.05;;;5.90;77.60;;;;;;4949571;28;20454;-76
2021/01/31 10:57:37;;;;;;;27.45;11.90;;;5.90;77.50;;;;;;4950068;28;20027;-76
2021/01/31 11:00:08;;;;;;;16.60;9.00;;;6.00;77.60;;;;;;4950028;28;20034;-77
2021/01/31 11:02:35;;;;;;;26.85;10.77;;;6.10;77.70;;;;;;4949950;28;20110;-75
2021/01/31 11:05:04;;;;;;;21.75;9.07;;;6.20;77.70;;;;;;4949470;28;20035;-77
2021/01/31 11:07:31;;;;;;;18.15;9.30;;;6.20;77.60;;;;;;4947009;29;20434;-76
2021/01/31 11:09:58;;;;;;;27.35;8.82;;;6.20;77.60;;;;;;4949894;28;20452;-76
2021/01/31 11:12:24;;;;;;;18.77;7.78;;;6.30;77.70;;;;;;4949881;28;20125;-75
2021/01/31 11:14:50;;;;;;;16.98;7.50;;;6.20;77.40;;;;;;4949649;28;20363;-76
2021/01/31 11:17:16;;;;;;;13.40;7.55;;;6.30;77.60;;;;;;4949200;28;20038;-76
2021/01/31 11:19:41;;;;;;;14.85;7.25;;;6.30;77.50;;;;;;4948878;28;20023;-77
2021/01/31 11:22:07;;;;;;;11.15;7.50;;;6.30;77.40;;;;;;4948054;28;20065;-76
2021/01/31 11:24:33;;;;;;;21.10;7.53;;;6.30;77.40;;;;;;4949475;28;20657;-76
2021/01/31 11:27:00;;;;;;;16.20;7.07;;;6.30;77.40;;;;;;4949351;28;20039;-75
2021/01/31 11:29:26;;;;;;;12.32;7.13;;;6.20;77.20;;;;;;4947599;28;20046;-77
2021/01/31 11:31:52;;;;;;;11.88;7.05;;;6.30;77.30;;;;;;4948373;28;20035;-76
2021/01/31 11:34:18;;;;;;;14.05;6.05;;;6.20;77.10;;;;;;4949682;28;20035;-76
2021/01/31 11:36:45;;;;;;;8.18;5.63;;;6.20;77.10;;;;;;4947824;28;20039;-76
2021/01/31 11:39:11;;;;;;;15.43;6.72;;;6.20;77.10;;;;;;4963907;28;20215;-73
2021/01/31 11:41:38;;;;;;;11.10;6.80;;;6.20;77.10;;;;;;4948231;29;20023;-76
2021/01/31 11:44:08;;;;;;;12.20;6.00;;;6.10;76.90;;;;;;4947791;28;20030;-76
2021/01/31 11:46:35;;;;;;;11.57;5.68;;;6.10;76.90;;;;;;4947551;28;20027;-77
2021/01/31 11:49:02;;;;;;;12.05;6.00;;;6.10;76.90;;;;;;4947122;28;20044;-75
2021/01/31 11:51:28;;;;;;;10.68;6.25;;;6.10;76.90;;;;;;4947754;29;20031;-75
2021/01/31 11:53:54;;;;;;;13.68;5.95;;;6.10;76.90;;;;;;4949151;28;20031;-76
2021/01/31 11:56:20;;;;;;;11.13;5.35;;;6.10;76.90;;;;;;4949665;28;20070;-75
2021/01/31 11:58:46;;;;;;;12.77;6.20;;;6.10;76.90;;;;;;4948612;28;20038;-76
2021/01/31 12:01:13;;;;;;;12.68;5.35;;;6.10;76.90;;;;;;4947608;28;20039;-77
2021/01/31 12:03:42;;;;;;;6.70;5.00;;;6.10;76.90;;;;;;4946821;28;20050;-75
2021/01/31 12:06:08;;;;;;;8.55;6.20;;;6.00;76.80;;;;;;4963392;28;20045;-76
2021/01/31 12:08:33;;;;;;;12.38;6.18;;;6.00;76.80;;;;;;4946967;28;20487;-76
2021/01/31 12:10:59;;;;;;;8.50;5.40;;;6.00;76.80;;;;;;4963425;28;20039;-75
2021/01/31 12:13:25;;;;;;;18.42;16.55;;;6.00;76.80;;;;;;4945818;28;20035;-76
2021/01/31 12:15:52;;;;;;;12.27;11.07;;;6.00;76.80;;;;;;4953744;28;20404;-75
2021/01/31 12:18:17;;;;;;;15.10;12.10;;;6.10;77.10;;;;;;4961526;28;20138;-75
2021/01/31 12:20:44;;;;;;;16.38;11.15;;;6.10;77.10;;;;;;4963306;28;20534;-75
2021/01/31 12:23:10;;;;;;;15.90;11.05;;;6.10;77.00;;;;;;4947570;28;20086;-76
2021/01/31 12:25:36;;;;;;;15.55;9.93;;;6.20;77.10;;;;;;4947998;28;20514;-76
2021/01/31 12:28:02;;;;;;;13.07;10.50;;;6.20;77.10;;;;;;4946857;28;20406;-76
2021/01/31 12:30:31;;;;;;;12.90;10.05;;;6.20;77.00;;;;;;4947781;28;20031;-76
2021/01/31 12:32:58;;;;;;;15.55;10.70;;;6.20;76.90;;;;;;4948219;28;20530;-77
2021/01/31 12:35:25;;;;;;;9.98;8.88;;;6.20;76.80;;;;;;4948137;28;20792;-75
2021/01/31 12:37:51;;;;;;;12.63;9.88;;;6.20;76.80;;;;;;4941967;28;20122;-75
2021/01/31 12:40:18;;;;;;;10.93;9.77;;;6.20;76.70;;;;;;4942642;29;20035;-77
2021/01/31 12:42:46;;;;;;;10.70;8.05;;;6.20;76.70;;;;;;4949915;28;20283;-74
2021/01/31 12:45:14;;;;;;;9.45;8.45;;;6.20;76.60;;;;;;4953302;28;20031;-73
2021/01/31 12:47:40;;;;;;;10.32;8.68;;;6.20;76.60;;;;;;4948594;28;20126;-73
2021/01/31 12:50:07;;;;;;;13.38;8.82;;;6.20;76.60;;;;;;4947687;28;20093;-74
2021/01/31 12:52:35;;;;;;;11.55;9.25;;;6.20;76.50;;;;;;4947732;28;20498;-73
2021/01/31 12:55:02;;;;;;;11.60;9.10;;;6.10;76.30;;;;;;4946346;29;20034;-74
2021/01/31 12:57:28;;;;;;;12.02;8.80;;;6.10;76.30;;;;;;4945645;28;20046;-74
2021/01/31 12:59:54;;;;;;;10.40;9.40;;;6.20;76.50;;;;;;4945622;28;20039;-74
2021/01/31 13:02:20;;;;;;;14.23;8.43;;;6.20;76.50;;;;;;4962208;28;20410;-75
2021/01/31 13:04:47;;;;;;;13.55;9.40;;;6.20;76.50;;;;;;4946174;28;20031;-75
2021/01/31 13:07:12;;;;;;;9.93;7.95;;;6.20;76.40;;;;;;4945941;29;20039;-74
2021/01/31 13:09:38;;;;;;;11.52;9.00;;;6.10;76.20;;;;;;4946006;28;20031;-73
2021/01/31 13:12:05;;;;;;;16.95;9.00;;;6.10;76.20;;;;;;4946035;29;20053;-73
2021/01/31 13:14:31;;;;;;;14.07;10.23;;;6.10;76.20;;;;;;4947494;28;20034;-72
2021/01/31 13:16:56;;;;;;;14.25;8.60;;;6.10;76.20;;;;;;4961829;28;20030;-73
2021/01/31 13:19:23;;;;;;;10.98;9.10;;;6.10;76.10;;;;;;4952461;28;20471;-74
2021/01/31 13:21:52;;;;;;;9.25;8.23;;;6.10;76.10;;;;;;4928620;28;20273;-74